Terminal Aerodrome Forecast
Issued by NWS

Home | Current Version | Previous Version | Text Only | Print | Product List | Glossary On
Versions: 1 2 3 4 5 6 7 8 9 10 11 12 13 14 15 16 17 18 19 20 21
000
FTUS44 KLZK 072137 AAB
TAFBPK
TAF AMD
KBPK 072137Z 0722/0818 21003KT P6SM -RA SCT015 OVC110
      TEMPO 0722/0802 5SM TSRA BR BKN035CB
     FM080600 18004KT P6SM VCTS SCT025CB BKN250=

USA.gov is the U.S. government's official web portal to all federal, state and local government web resources and services.